createdAt,value
2018-03-21T00:02:13.323Z,99539.28
2018-03-21T00:04:40.974Z,99538.56
2018-03-21T00:07:08.587Z,99546.50
2018-03-21T00:09:36.196Z,99554.02
2018-03-21T00:12:03.852Z,99552.96
2018-03-21T00:14:31.472Z,99553.22
2018-03-21T00:16:59.065Z,99567.05
2018-03-21T00:19:26.666Z,99571.92
2018-03-21T00:21:54.363Z,99572.07
2018-03-21T00:24:21.979Z,99572.02
2018-03-21T00:26:49.566Z,99567.39
2018-03-21T00:29:17.190Z,99571.94
2018-03-21T00:31:44.811Z,99569.55
2018-03-21T00:34:12.476Z,99573.77
2018-03-21T00:36:40.067Z,99570.12
2018-03-21T00:39:07.691Z,99575.97
2018-03-21T00:41:35.278Z,99572.17
2018-03-21T00:44:02.875Z,99562.27
2018-03-21T00:46:30.491Z,99557.86
2018-03-21T00:48:58.086Z,99553.67
2018-03-21T00:51:25.713Z,99560.05
2018-03-21T00:53:53.314Z,99547.89
2018-03-21T00:56:20.967Z,99536.36
2018-03-21T00:58:48.606Z,99524.27
2018-03-21T01:01:16.216Z,99520.64
2018-03-21T01:03:43.820Z,99529.53
2018-03-21T01:06:11.503Z,99528.62
2018-03-21T01:08:39.094Z,99523.99
2018-03-21T01:11:06.716Z,99528.00
2018-03-21T01:13:34.370Z,99537.98
2018-03-21T01:16:01.976Z,99537.17
2018-03-21T01:18:29.616Z,99539.69
2018-03-21T01:20:57.211Z,99535.53
2018-03-21T01:23:24.800Z,99531.08
2018-03-21T01:25:52.435Z,99530.44
2018-03-21T01:28:20.018Z,99530.41
2018-03-21T01:30:47.598Z,99524.95
2018-03-21T01:33:15.200Z,99525.24
2018-03-21T01:35:42.818Z,99516.45
2018-03-21T01:38:10.503Z,99512.52
2018-03-21T01:40:38.102Z,99511.84
2018-03-21T01:43:05.728Z,99497.20
2018-03-21T01:45:33.350Z,99495.40
2018-03-21T01:48:00.935Z,99495.50
2018-03-21T01:50:28.594Z,99490.00
2018-03-21T01:53:12.835Z,99482.05
2018-03-21T01:55:40.494Z,99489.41
2018-03-21T01:58:08.175Z,99488.56
2018-03-21T02:00:35.763Z,99483.16
2018-03-21T02:03:03.394Z,99491.77
2018-03-21T02:05:31.017Z,99504.28
2018-03-21T02:07:58.667Z,99513.92
2018-03-21T02:10:26.306Z,99518.98
2018-03-21T02:12:53.927Z,99517.87
2018-03-21T02:15:21.516Z,99517.52
2018-03-21T02:17:49.116Z,99521.03
2018-03-21T02:20:16.805Z,99535.09
2018-03-21T02:22:44.403Z,99532.31
2018-03-21T02:25:12.034Z,99536.52
2018-03-21T02:27:39.671Z,99541.52
2018-03-21T02:30:07.263Z,99531.71
2018-03-21T02:32:34.862Z,99525.19
2018-03-21T02:35:02.502Z,99515.77
2018-03-21T02:37:30.110Z,99511.95
2018-03-21T02:39:57.737Z,99511.12
2018-03-21T02:42:25.350Z,99523.80
2018-03-21T02:44:52.975Z,99523.31
2018-03-21T02:47:20.571Z,99526.04
2018-03-21T02:49:48.197Z,99529.13
2018-03-21T02:52:15.827Z,99523.59
2018-03-21T02:54:43.448Z,99530.07
2018-03-21T02:57:11.047Z,99532.38
2018-03-21T02:59:38.661Z,99517.15
2018-03-21T03:02:06.292Z,99519.25
2018-03-21T03:04:33.940Z,99531.02
2018-03-21T03:07:01.536Z,99526.73
2018-03-21T03:09:29.148Z,99523.97
2018-03-21T03:11:56.781Z,99513.11
2018-03-21T03:14:24.374Z,99520.62
2018-03-21T03:16:51.980Z,99513.06
2018-03-21T03:19:19.583Z,99515.83
2018-03-21T03:21:47.190Z,99525.54
2018-03-21T03:24:14.822Z,99527.10
2018-03-21T03:26:42.435Z,99527.48
2018-03-21T03:29:10.032Z,99526.30
2018-03-21T03:31:37.711Z,99525.01
2018-03-21T03:34:05.328Z,99517.58
2018-03-21T03:36:32.954Z,99518.78
2018-03-21T03:39:00.578Z,99520.63
2018-03-21T03:41:28.210Z,99513.75
2018-03-21T03:43:55.796Z,99510.63
2018-03-21T03:46:23.386Z,99509.12
2018-03-21T03:48:51.047Z,99506.58
2018-03-21T03:51:18.650Z,99502.86
2018-03-21T03:53:46.235Z,99508.39
2018-03-21T03:56:13.892Z,99524.12
2018-03-21T03:58:41.510Z,99522.75
2018-03-21T04:01:09.096Z,99507.89
2018-03-21T04:03:36.746Z,99514.24
2018-03-21T04:06:04.366Z,99512.17
2018-03-21T04:08:31.995Z,99519.91
2018-03-21T04:10:59.623Z,99527.95
2018-03-21T04:13:27.218Z,99530.26
2018-03-21T04:15:54.801Z,99536.07
2018-03-21T04:18:22.399Z,99532.86
2018-03-21T04:20:49.992Z,99522.16
2018-03-21T04:23:17.689Z,99526.44
2018-03-21T04:25:45.287Z,99528.52
2018-03-21T04:28:12.878Z,99535.45
2018-03-21T04:30:40.545Z,99534.58
2018-03-21T04:33:08.126Z,99538.92
2018-03-21T04:35:35.790Z,99540.70
2018-03-21T04:38:03.439Z,99535.87
2018-03-21T04:40:31.029Z,99536.96
2018-03-21T04:42:58.647Z,99537.52
2018-03-21T04:45:26.302Z,99537.41
2018-03-21T04:47:53.939Z,99549.30
2018-03-21T04:50:21.571Z,99554.39
2018-03-21T04:52:49.166Z,99550.83
2018-03-21T04:55:16.782Z,99549.63
2018-03-21T04:57:44.470Z,99546.64
2018-03-21T05:00:12.094Z,99536.32
2018-03-21T05:02:39.712Z,99532.25
2018-03-21T05:05:07.407Z,99530.79
2018-03-21T05:07:35.015Z,99541.85
2018-03-21T05:10:02.615Z,99540.47
2018-03-21T05:12:30.283Z,99539.28
2018-03-21T05:14:57.884Z,99540.39
2018-03-21T05:17:25.506Z,99536.80
2018-03-21T05:19:53.122Z,99525.72
2018-03-21T05:22:20.875Z,99534.50
2018-03-21T05:24:49.347Z,99540.59
2018-03-21T05:27:16.977Z,99547.84
2018-03-21T05:29:44.589Z,99557.45
2018-03-21T05:32:12.202Z,99547.91
2018-03-21T05:34:39.822Z,99547.45
2018-03-21T05:37:07.408Z,99543.52
2018-03-21T05:39:34.998Z,99540.28
2018-03-21T05:42:02.593Z,99523.80
2018-03-21T05:44:30.187Z,99530.69
2018-03-21T05:46:57.838Z,99537.58
2018-03-21T05:49:25.454Z,99536.33
2018-03-21T05:51:53.035Z,99554.47
2018-03-21T05:54:20.670Z,99553.90
2018-03-21T05:56:48.295Z,99561.78
2018-03-21T05:59:15.886Z,99581.66
2018-03-21T06:01:43.505Z,99583.35
2018-03-21T06:04:11.172Z,99579.18
2018-03-21T06:06:38.784Z,99568.04
2018-03-21T06:09:06.441Z,99573.12
2018-03-21T06:11:34.129Z,99577.99
2018-03-21T06:14:01.765Z,99580.79
2018-03-21T06:16:29.359Z,99584.98
2018-03-21T06:18:57.047Z,99584.38
2018-03-21T06:21:24.754Z,99584.23
2018-03-21T06:23:52.368Z,99585.32
2018-03-21T06:26:20.039Z,99589.55
2018-03-21T06:28:47.676Z,99586.27
2018-03-21T06:31:15.279Z,99594.31
2018-03-21T06:33:42.945Z,99607.12
2018-03-21T06:36:10.531Z,99604.80
2018-03-21T06:38:38.170Z,99618.88
2018-03-21T06:41:05.863Z,99615.78
2018-03-21T06:43:33.499Z,99611.52
2018-03-21T06:46:01.098Z,99610.78
2018-03-21T06:48:28.746Z,99609.54
2018-03-21T06:50:56.369Z,99617.39
2018-03-21T06:53:24.019Z,99606.38
2018-03-21T06:55:51.619Z,99609.49
2018-03-21T06:58:19.274Z,99609.89
2018-03-21T07:00:46.982Z,99609.92
2018-03-21T07:03:14.594Z,99612.98
2018-03-21T07:05:42.327Z,99609.05
2018-03-21T07:08:09.955Z,99605.20
2018-03-21T07:10:37.768Z,99613.83
2018-03-21T07:13:05.355Z,99621.24
2018-03-21T07:15:44.647Z,99623.88
2018-03-21T07:18:12.242Z,99631.38
2018-03-21T07:20:39.944Z,99627.58
2018-03-21T07:23:07.597Z,99619.28
2018-03-21T07:25:35.193Z,99619.74
2018-03-21T07:28:02.818Z,99614.70
2018-03-21T07:30:30.455Z,99622.63
2018-03-21T07:32:58.050Z,99613.03
2018-03-21T07:35:25.643Z,99620.01
2018-03-21T07:37:53.347Z,99616.69
2018-03-21T07:40:20.943Z,99616.00
2018-03-21T07:42:48.553Z,99621.65
2018-03-21T07:45:16.179Z,99623.06
2018-03-21T07:47:43.803Z,99627.03
2018-03-21T07:50:11.387Z,99620.03
2018-03-21T07:52:39.015Z,99621.08
2018-03-21T07:55:06.635Z,99617.95
2018-03-21T07:57:34.235Z,99614.00
2018-03-21T08:00:01.862Z,99624.32
2018-03-21T08:02:29.598Z,99627.06
2018-03-21T08:04:57.191Z,99633.73
2018-03-21T08:07:24.879Z,99627.87
2018-03-21T08:09:52.481Z,99621.25
2018-03-21T08:12:20.146Z,99621.97
2018-03-21T08:14:47.731Z,99616.39
2018-03-21T08:17:15.322Z,99628.49
2018-03-21T08:19:42.919Z,99625.81
2018-03-21T08:22:10.539Z,99632.63
2018-03-21T08:24:38.162Z,99626.17
2018-03-21T08:27:05.749Z,99631.94
2018-03-21T08:29:33.352Z,99618.26
2018-03-21T08:32:01.007Z,99624.11
2018-03-21T08:34:28.656Z,99612.08
2018-03-21T08:36:56.247Z,99599.17
2018-03-21T08:39:23.879Z,99582.02
2018-03-21T08:41:51.495Z,99589.67
2018-03-21T08:44:19.104Z,99554.22
2018-03-21T08:46:46.842Z,99528.77
2018-03-21T08:49:14.436Z,99530.88
2018-03-21T08:51:42.037Z,99528.22
2018-03-21T08:54:09.715Z,99547.60
2018-03-21T08:56:37.295Z,99563.29
2018-03-21T08:59:04.902Z,99580.51
2018-03-21T09:01:32.538Z,99568.71
2018-03-21T09:04:00.139Z,99565.77
2018-03-21T09:06:27.748Z,99544.30
2018-03-21T09:08:55.374Z,99519.34
2018-03-21T09:11:22.976Z,99502.14
2018-03-21T09:13:50.607Z,99500.81
2018-03-21T09:16:18.227Z,99530.67
2018-03-21T09:18:45.847Z,99529.83
2018-03-21T09:21:13.487Z,99536.22
2018-03-21T09:23:41.071Z,99540.09
2018-03-21T09:26:08.728Z,99539.81
2018-03-21T09:28:36.336Z,99533.63
2018-03-21T09:31:03.959Z,99531.99
2018-03-21T09:33:31.605Z,99528.89
2018-03-21T09:35:59.369Z,99537.36
2018-03-21T09:38:26.987Z,99539.16
2018-03-21T09:40:54.606Z,99546.20
2018-03-21T09:43:22.352Z,99576.99
2018-03-21T09:45:50.021Z,99592.62
2018-03-21T09:48:17.659Z,99584.15
2018-03-21T09:50:45.327Z,99578.23
2018-03-21T09:53:12.922Z,99575.58
2018-03-21T09:55:40.522Z,99564.25
2018-03-21T09:58:08.211Z,99571.67
2018-03-21T10:00:35.832Z,99565.22
2018-03-21T10:03:03.538Z,99551.91
2018-03-21T10:05:31.418Z,99547.04
2018-03-21T10:07:59.249Z,99564.80
2018-03-21T10:10:26.920Z,99567.80
2018-03-21T10:12:54.583Z,99579.89
2018-03-21T10:15:22.202Z,99572.80
2018-03-21T10:17:49.849Z,99534.58
2018-03-21T10:20:17.439Z,99546.64
2018-03-21T10:22:45.059Z,99548.91
2018-03-21T10:25:12.730Z,99558.91
2018-03-21T10:27:40.355Z,99521.37
2018-03-21T10:30:07.951Z,99497.02
2018-03-21T10:32:35.592Z,99512.30
2018-03-21T10:35:03.240Z,99523.42
2018-03-21T10:37:30.841Z,99518.08
2018-03-21T10:39:58.472Z,99504.66
2018-03-21T10:42:26.103Z,99493.30
2018-03-21T10:44:53.769Z,99473.27
2018-03-21T10:47:21.412Z,99493.05
2018-03-21T10:49:49.082Z,99506.04
2018-03-21T10:52:16.748Z,99519.36
2018-03-21T10:54:44.348Z,99521.73
2018-03-21T10:57:11.943Z,99529.80
2018-03-21T10:59:39.536Z,99531.22
2018-03-21T11:02:12.775Z,99524.72
2018-03-21T11:04:40.402Z,99526.67
2018-03-21T11:07:08.002Z,99530.52
2018-03-21T11:09:35.670Z,99532.29
2018-03-21T11:12:03.322Z,99532.33
2018-03-21T11:14:30.916Z,99537.56
2018-03-21T11:16:58.507Z,99554.81
2018-03-21T11:19:26.130Z,99544.41
2018-03-21T11:21:53.747Z,99531.95
2018-03-21T11:24:21.395Z,99546.91
2018-03-21T11:26:49.125Z,99541.93
2018-03-21T11:29:16.722Z,99553.56
2018-03-21T11:31:44.316Z,99544.88
2018-03-21T11:34:11.995Z,99549.36
2018-03-21T11:36:39.571Z,99548.89
2018-03-21T11:39:07.163Z,99562.54
2018-03-21T11:41:34.792Z,99559.48
2018-03-21T11:44:02.382Z,99569.58
2018-03-21T11:46:30.047Z,99558.70
2018-03-21T11:48:57.644Z,99578.15
2018-03-21T11:51:25.267Z,99588.62
2018-03-21T11:53:52.899Z,99588.36
2018-03-21T11:56:20.496Z,99567.30
2018-03-21T11:58:48.157Z,99587.81
2018-03-21T12:01:15.786Z,99580.38
2018-03-21T12:03:43.379Z,99575.34
2018-03-21T12:06:11.008Z,99586.02
2018-03-21T12:08:38.649Z,99589.72
2018-03-21T12:11:06.251Z,99583.59
2018-03-21T12:13:33.911Z,99579.52
2018-03-21T12:16:01.521Z,99572.80
2018-03-21T12:18:29.160Z,99558.31
2018-03-21T12:20:56.783Z,99543.65
2018-03-21T12:23:24.388Z,99518.78
2018-03-21T12:25:52.051Z,99518.05
2018-03-21T12:28:19.647Z,99512.45
2018-03-21T12:30:51.943Z,99498.77
2018-03-21T12:33:19.546Z,99508.28
2018-03-21T12:35:47.683Z,99513.13
2018-03-21T12:38:16.403Z,99493.91
2018-03-21T12:40:44.071Z,99479.02
2018-03-21T12:43:11.768Z,99478.14
2018-03-21T12:45:39.391Z,99472.19
2018-03-21T12:48:07.123Z,99468.76
2018-03-21T12:50:34.784Z,99460.23
2018-03-21T12:53:02.409Z,99446.64
2018-03-21T12:55:30.048Z,99432.88
2018-03-21T12:57:57.767Z,99435.38
2018-03-21T13:00:25.387Z,99433.55
2018-03-21T13:02:53.038Z,99436.31
2018-03-21T13:05:20.719Z,99437.77
2018-03-21T13:07:48.396Z,99432.13
2018-03-21T13:10:16.115Z,99423.72
2018-03-21T13:12:43.832Z,99436.96
2018-03-21T13:15:11.460Z,99438.92
2018-03-21T13:17:39.204Z,99443.25
2018-03-21T13:20:06.934Z,99449.12
2018-03-21T13:22:34.529Z,99461.67
2018-03-21T13:25:02.175Z,99455.88
2018-03-21T13:27:29.804Z,99446.90
2018-03-21T13:29:57.419Z,99439.30
2018-03-21T13:32:25.016Z,99440.53
2018-03-21T13:34:52.637Z,99429.70
2018-03-21T13:37:20.279Z,99420.39
2018-03-21T13:39:47.911Z,99417.89
2018-03-21T13:42:15.563Z,99418.55
2018-03-21T13:44:43.200Z,99427.58
2018-03-21T13:47:10.867Z,99440.27
2018-03-21T13:49:38.471Z,99439.30
2018-03-21T13:52:06.115Z,99435.78
2018-03-21T13:54:33.706Z,99431.83
2018-03-21T13:57:01.295Z,99422.71
2018-03-21T13:59:28.941Z,99439.73
2018-03-21T14:01:56.540Z,99453.13
2018-03-21T14:04:24.152Z,99457.59
2018-03-21T14:06:51.977Z,99459.91
2018-03-21T14:09:19.631Z,99468.73
2018-03-21T14:11:47.224Z,99469.42
2018-03-21T14:14:14.819Z,99472.24
2018-03-21T14:16:42.539Z,99460.38
2018-03-21T14:19:10.196Z,99468.96
2018-03-21T14:21:37.804Z,99466.66
2018-03-21T14:24:05.434Z,99451.00
2018-03-21T14:26:33.032Z,99440.16
2018-03-21T14:29:00.614Z,99434.34
2018-03-21T14:31:29.143Z,99425.97
2018-03-21T14:33:56.749Z,99426.91
2018-03-21T14:36:24.341Z,99421.59
2018-03-21T14:38:52.007Z,99411.14
2018-03-21T14:41:19.617Z,99411.88
2018-03-21T14:43:47.226Z,99418.07
2018-03-21T14:46:14.935Z,99424.20
2018-03-21T14:48:42.531Z,99432.30
2018-03-21T14:51:10.147Z,99433.53
2018-03-21T14:53:37.813Z,99447.76
2018-03-21T14:56:05.450Z,99456.69
2018-03-21T14:58:33.067Z,99469.97
2018-03-21T15:01:00.659Z,99474.28
2018-03-21T15:03:28.308Z,99476.34
2018-03-21T15:05:55.934Z,99488.34
2018-03-21T15:08:23.534Z,99489.78
2018-03-21T15:10:51.180Z,99493.39
2018-03-21T15:13:29.032Z,99510.52
2018-03-21T15:15:56.623Z,99507.41
2018-03-21T15:18:24.259Z,99509.66
2018-03-21T15:20:51.912Z,99507.72
2018-03-21T15:23:19.507Z,99516.00
2018-03-21T15:25:47.176Z,99521.33
2018-03-21T15:28:14.794Z,99525.38
2018-03-21T15:30:43.027Z,99527.20
2018-03-21T15:33:10.674Z,99533.38
2018-03-21T15:35:38.273Z,99534.08
2018-03-21T15:38:05.954Z,99535.16
2018-03-21T15:40:33.542Z,99520.11
2018-03-21T15:43:01.160Z,99532.66
2018-03-21T15:45:28.826Z,99540.31
2018-03-21T15:47:56.447Z,99536.61
2018-03-21T15:50:24.038Z,99525.22
2018-03-21T15:52:51.759Z,99513.31
2018-03-21T15:55:19.383Z,99507.69
2018-03-21T15:57:47.107Z,99504.31
2018-03-21T16:00:14.818Z,99510.23
2018-03-21T16:02:42.415Z,99508.16
2018-03-21T16:05:10.053Z,99515.05
2018-03-21T16:07:37.715Z,99509.16
2018-03-21T16:10:05.307Z,99509.41
2018-03-21T16:12:32.921Z,99519.44
2018-03-21T16:15:00.572Z,99519.18
2018-03-21T16:17:28.224Z,99528.61
2018-03-21T16:19:56.003Z,99536.74
2018-03-21T16:22:24.009Z,99537.42
2018-03-21T16:24:52.737Z,99544.84
2018-03-21T16:27:20.402Z,99538.88
2018-03-21T16:29:48.025Z,99553.78
2018-03-21T16:32:15.672Z,99560.89
2018-03-21T16:34:43.411Z,99555.64
2018-03-21T16:37:11.024Z,99554.86
2018-03-21T16:39:38.627Z,99557.63
2018-03-21T16:42:06.296Z,99547.98
2018-03-21T16:44:34.236Z,99551.29
2018-03-21T16:47:01.921Z,99556.78
2018-03-21T16:49:29.624Z,99560.28
2018-03-21T16:51:57.283Z,99552.64
2018-03-21T16:54:24.932Z,99562.09
2018-03-21T16:56:52.527Z,99564.67
2018-03-21T16:59:20.129Z,99557.80
2018-03-21T17:01:47.739Z,99563.53
2018-03-21T17:04:15.339Z,99567.56
2018-03-21T17:06:42.967Z,99576.53
2018-03-21T17:09:10.569Z,99571.14
2018-03-21T17:11:38.166Z,99574.67
2018-03-21T17:14:05.815Z,99583.27
2018-03-21T17:16:33.420Z,99576.71
2018-03-21T17:19:01.038Z,99569.00
2018-03-21T17:21:28.685Z,99570.09
2018-03-21T17:23:56.371Z,99574.33
2018-03-21T17:26:23.981Z,99574.97
2018-03-21T17:28:51.587Z,99576.11
2018-03-21T17:31:19.385Z,99582.77
2018-03-21T17:33:47.100Z,99590.30
2018-03-21T17:36:15.128Z,99600.09
2018-03-21T17:38:42.844Z,99616.27
2018-03-21T17:41:10.480Z,99620.86
2018-03-21T17:43:38.121Z,99629.08
2018-03-21T17:46:05.768Z,99636.36
2018-03-21T17:48:33.379Z,99643.34
2018-03-21T17:51:01.179Z,99649.54
2018-03-21T17:53:28.860Z,99656.70
2018-03-21T17:55:56.633Z,99668.49
2018-03-21T17:58:24.263Z,99668.49
2018-03-21T18:00:51.910Z,99678.16
2018-03-21T18:03:19.527Z,99669.34
2018-03-21T18:05:47.143Z,99672.77
2018-03-21T18:08:14.864Z,99674.95
2018-03-21T18:10:42.471Z,99680.01
2018-03-21T18:13:10.070Z,99681.34
2018-03-21T18:15:37.678Z,99673.37
2018-03-21T18:18:05.289Z,99676.80
2018-03-21T18:20:32.967Z,99687.44
2018-03-21T18:23:00.610Z,99686.88
2018-03-21T18:25:28.327Z,99696.30
2018-03-21T18:27:56.069Z,99704.51
2018-03-21T18:30:23.667Z,99713.95
2018-03-21T18:32:51.303Z,99714.23
2018-03-21T18:35:18.898Z,99719.09
2018-03-21T18:37:46.554Z,99720.51
2018-03-21T18:40:14.167Z,99720.64
2018-03-21T18:42:41.763Z,99723.69
2018-03-21T18:45:09.394Z,99738.57
2018-03-21T18:47:37.010Z,99735.56
2018-03-21T18:50:04.611Z,99743.29
2018-03-21T18:52:32.275Z,99754.70
2018-03-21T18:54:59.903Z,99754.69
2018-03-21T18:57:27.493Z,99750.59
2018-03-21T18:59:55.135Z,99751.81
2018-03-21T19:02:22.743Z,99753.25
2018-03-21T19:04:50.343Z,99763.76
2018-03-21T19:07:17.996Z,99765.27
2018-03-21T19:09:45.615Z,99762.61
2018-03-21T19:12:13.233Z,99774.16
2018-03-21T19:14:40.923Z,99787.77
2018-03-21T19:17:08.521Z,99795.75
2018-03-21T19:19:36.117Z,99809.73
2018-03-21T19:22:03.759Z,99807.46
2018-03-21T19:24:31.355Z,99806.23
2018-03-21T19:26:59.043Z,99796.73
2018-03-21T19:29:26.803Z,99802.06
2018-03-21T19:31:54.454Z,99813.62
2018-03-21T19:34:22.060Z,99826.59
2018-03-21T19:36:49.659Z,99840.33
2018-03-21T19:39:17.255Z,99840.91
2018-03-21T19:41:44.888Z,99829.15
2018-03-21T19:44:12.493Z,99830.66
2018-03-21T19:46:40.092Z,99840.62
2018-03-21T19:49:07.756Z,99832.97
2018-03-21T19:51:35.423Z,99849.80
2018-03-21T19:54:03.228Z,99856.40
2018-03-21T19:56:31.794Z,99866.91
2018-03-21T19:58:59.408Z,99860.77
2018-03-21T20:01:27.049Z,99855.02
2018-03-21T20:03:54.696Z,99863.95
2018-03-21T20:06:22.291Z,99862.34
2018-03-21T20:08:49.916Z,99856.53
2018-03-21T20:11:17.506Z,99857.06
2018-03-21T20:13:45.119Z,99866.09
2018-03-21T20:16:12.743Z,99878.47
2018-03-21T20:18:40.336Z,99889.17
2018-03-21T20:21:07.950Z,99891.66
2018-03-21T20:23:35.577Z,99904.67
2018-03-21T20:26:03.182Z,99898.98
2018-03-21T20:28:30.771Z,99910.20
2018-03-21T20:30:58.391Z,99906.59
2018-03-21T20:33:26.012Z,99911.90
2018-03-21T20:35:53.667Z,99913.14
2018-03-21T20:38:21.301Z,99912.75
2018-03-21T20:40:48.895Z,99925.14
2018-03-21T20:43:16.491Z,99915.38
2018-03-21T20:45:44.120Z,99926.30
2018-03-21T20:48:11.747Z,99923.77
2018-03-21T20:50:39.394Z,99910.50
2018-03-21T20:53:07.007Z,99907.10
2018-03-21T20:55:34.626Z,99913.23
2018-03-21T20:58:02.251Z,99919.86
2018-03-21T21:00:29.842Z,99915.19
2018-03-21T21:02:57.479Z,99921.84
2018-03-21T21:05:25.068Z,99933.61
2018-03-21T21:07:52.674Z,99935.16
2018-03-21T21:10:20.363Z,99942.02
2018-03-21T21:12:47.991Z,99939.83
2018-03-21T21:15:15.607Z,99934.96
2018-03-21T21:17:43.239Z,99932.63
2018-03-21T21:20:10.835Z,99932.03
2018-03-21T21:22:38.427Z,99940.45
2018-03-21T21:25:06.075Z,99938.44
2018-03-21T21:27:33.771Z,99946.07
2018-03-21T21:30:01.395Z,99941.63
2018-03-21T21:32:29.012Z,99951.80
2018-03-21T21:34:56.627Z,99953.41
2018-03-21T21:37:24.295Z,99935.52
2018-03-21T21:39:52.000Z,99935.69
2018-03-21T21:42:19.642Z,99936.70
2018-03-21T21:44:47.291Z,99941.87
2018-03-21T21:47:14.916Z,99947.95
2018-03-21T21:49:42.543Z,99946.05
2018-03-21T21:52:10.207Z,99941.63
2018-03-21T21:54:37.803Z,99943.28
2018-03-21T21:57:05.447Z,99940.81
2018-03-21T21:59:33.023Z,99936.94
2018-03-21T22:02:00.611Z,99946.18
2018-03-21T22:04:28.283Z,99950.73
2018-03-21T22:06:55.917Z,99955.27
2018-03-21T22:09:23.764Z,99945.04
2018-03-21T22:11:51.418Z,99950.30
2018-03-21T22:14:19.083Z,99952.20
2018-03-21T22:16:46.743Z,99965.23
2018-03-21T22:19:14.331Z,99966.14
2018-03-21T22:21:41.979Z,99961.12
2018-03-21T22:24:09.632Z,99954.14
2018-03-21T22:26:37.234Z,99965.34
2018-03-21T22:29:04.830Z,99985.20
2018-03-21T22:31:32.458Z,99994.19
2018-03-21T22:34:00.059Z,99991.08
2018-03-21T22:36:30.751Z,100000.17
2018-03-21T22:38:58.383Z,100009.16
2018-03-21T22:41:25.974Z,100010.13
2018-03-21T22:43:53.589Z,100016.16
2018-03-21T22:46:21.182Z,100019.59
2018-03-21T22:48:48.775Z,100021.37
2018-03-21T22:51:16.402Z,100024.73
2018-03-21T22:53:44.020Z,100003.82
2018-03-21T22:56:11.603Z,99996.59
2018-03-21T22:58:39.271Z,100009.72
2018-03-21T23:01:06.868Z,100013.37
2018-03-21T23:03:34.471Z,100017.86
2018-03-21T23:06:02.115Z,100013.53
2018-03-21T23:08:29.805Z,100016.27
2018-03-21T23:10:57.411Z,100018.94
2018-03-21T23:13:25.027Z,100030.04
2018-03-21T23:15:52.726Z,100031.61
2018-03-21T23:18:20.287Z,100023.36
2018-03-21T23:20:47.907Z,100018.00
2018-03-21T23:23:15.536Z,100019.33
2018-03-21T23:25:43.167Z,100032.62
2018-03-21T23:28:10.760Z,100030.87
2018-03-21T23:30:38.390Z,100028.20
2018-03-21T23:33:05.981Z,100031.79
2018-03-21T23:35:33.650Z,100020.33
2018-03-21T23:38:01.251Z,100016.31
2018-03-21T23:40:28.880Z,100011.98
2018-03-21T23:42:56.516Z,100011.69
2018-03-21T23:45:24.114Z,100018.61
2018-03-21T23:47:51.800Z,100025.06
2018-03-21T23:50:19.460Z,100028.49
2018-03-21T23:52:47.068Z,100023.41
2018-03-21T23:55:14.672Z,100012.55
2018-03-21T23:57:42.391Z,100008.05
